createdAt,value
2023-04-09T00:02:41.575Z,98.52
2023-04-09T00:05:44.819Z,98.49
2023-04-09T00:08:48.779Z,98.64
2023-04-09T00:11:52.739Z,98.74
2023-04-09T00:14:56.943Z,98.80
2023-04-09T00:18:00.412Z,98.71
2023-04-09T00:21:02.995Z,98.58
2023-04-09T00:24:06.102Z,98.61
2023-04-09T00:27:09.208Z,98.50
2023-04-09T00:30:12.179Z,98.48
2023-04-09T00:33:15.820Z,98.19
2023-04-09T00:36:19.402Z,98.08
2023-04-09T00:39:22.291Z,97.88
2023-04-09T00:42:26.636Z,97.76
2023-04-09T00:45:29.288Z,97.61
2023-04-09T00:48:32.117Z,97.57
2023-04-09T00:51:36.858Z,97.83
2023-04-09T00:54:40.147Z,97.66
2023-04-09T00:57:44.207Z,97.52
2023-04-09T01:00:47.465Z,97.51
2023-04-09T01:03:51.355Z,97.68
2023-04-09T01:07:20.293Z,97.74
2023-04-09T01:10:39.728Z,97.56
2023-04-09T01:13:55.017Z,97.84
2023-04-09T01:17:05.544Z,97.92
2023-04-09T01:20:13.537Z,97.92
2023-04-09T01:23:26.872Z,97.74
2023-04-09T01:26:45.756Z,97.69
2023-04-09T01:29:53.585Z,97.63
2023-04-09T01:32:58.081Z,97.65
2023-04-09T01:36:01.965Z,97.54
2023-04-09T01:39:07.309Z,97.51
2023-04-09T01:42:12.990Z,97.79
2023-04-09T01:45:18.236Z,97.49
2023-04-09T01:48:23.441Z,97.44
2023-04-09T01:51:27.431Z,97.35
2023-04-09T01:54:29.986Z,97.41
2023-04-09T01:57:33.158Z,97.63
2023-04-09T02:00:40.686Z,97.69
2023-04-09T02:03:57.071Z,97.61
2023-04-09T02:07:10.739Z,97.48
2023-04-09T02:10:17.405Z,97.35
2023-04-09T02:13:21.515Z,97.57
2023-04-09T02:16:27.463Z,97.70
2023-04-09T02:19:44.986Z,97.51
2023-04-09T02:22:49.072Z,97.45
2023-04-09T02:25:54.330Z,97.50
2023-04-09T02:28:57.148Z,97.68
2023-04-09T02:32:00.739Z,97.51
2023-04-09T02:35:03.723Z,97.39
2023-04-09T02:38:08.198Z,97.69
2023-04-09T02:41:14.252Z,97.81
2023-04-09T02:44:17.387Z,97.80
2023-04-09T02:47:20.844Z,97.87
2023-04-09T02:50:24.429Z,97.96
2023-04-09T02:53:27.728Z,97.93
2023-04-09T02:56:32.492Z,97.95
2023-04-09T02:59:35.953Z,98.08
2023-04-09T03:02:39.313Z,98.16
2023-04-09T03:05:42.208Z,98.34
2023-04-09T03:08:44.960Z,98.48
2023-04-09T03:11:47.633Z,98.45
2023-04-09T03:14:50.954Z,98.45
2023-04-09T03:17:53.968Z,98.50
2023-04-09T03:20:57.102Z,98.55
2023-04-09T03:24:02.506Z,98.58
2023-04-09T03:27:05.607Z,98.36
2023-04-09T03:30:08.998Z,98.42
2023-04-09T03:33:12.303Z,98.53
2023-04-09T03:36:19.172Z,98.49
2023-04-09T03:39:23.635Z,98.54
2023-04-09T03:42:28.993Z,98.64
2023-04-09T03:45:32.741Z,98.63
2023-04-09T03:48:37.378Z,98.65
2023-04-09T03:51:40.747Z,98.52
2023-04-09T03:54:43.768Z,98.29
2023-04-09T03:57:47.265Z,98.55
2023-04-09T04:00:50.553Z,98.98
2023-04-09T04:03:57.843Z,98.84
2023-04-09T04:07:04.345Z,98.64
2023-04-09T04:10:08.415Z,98.69
2023-04-09T04:13:15.576Z,98.86
2023-04-09T04:16:19.618Z,99.05
2023-04-09T04:19:22.904Z,98.81
2023-04-09T04:22:26.526Z,99.04
2023-04-09T04:25:30.756Z,99.12
2023-04-09T04:28:40.199Z,98.83
2023-04-09T04:31:44.367Z,98.70
2023-04-09T04:34:50.877Z,98.88
2023-04-09T04:37:55.937Z,98.62
2023-04-09T04:41:02.240Z,98.61
2023-04-09T04:44:13.944Z,98.59
2023-04-09T04:47:19.725Z,98.40
2023-04-09T04:50:23.037Z,98.23
2023-04-09T04:53:37.611Z,98.24
2023-04-09T04:56:44.768Z,98.26
2023-04-09T04:59:48.890Z,98.13
2023-04-09T05:02:53.202Z,98.08
2023-04-09T05:05:59.098Z,97.93
2023-04-09T05:09:04.225Z,97.63
2023-04-09T05:12:09.860Z,97.68
2023-04-09T05:15:23.252Z,97.42
2023-04-09T05:18:27.296Z,97.54
2023-04-09T05:21:32.306Z,97.32
2023-04-09T05:24:36.156Z,97.19
2023-04-09T05:27:48.589Z,97.23
2023-04-09T05:30:54.423Z,97.18
2023-04-09T05:34:01.046Z,97.21
2023-04-09T05:37:23.228Z,97.14
2023-04-09T05:40:35.572Z,96.94
2023-04-09T05:43:39.333Z,96.78
2023-04-09T05:46:42.456Z,96.75
2023-04-09T05:49:59.182Z,96.48
2023-04-09T05:53:13.162Z,96.31
2023-04-09T05:56:19.640Z,96.29
2023-04-09T05:59:23.696Z,96.02
2023-04-09T06:02:27.205Z,95.96
2023-04-09T06:05:31.232Z,96.03
2023-04-09T06:08:45.564Z,95.99
2023-04-09T06:11:52.436Z,96.02
2023-04-09T06:15:03.771Z,95.89
2023-04-09T06:18:08.467Z,95.69
2023-04-09T06:21:17.884Z,95.53
2023-04-09T06:24:28.727Z,95.30
2023-04-09T06:27:33.154Z,95.16
2023-04-09T06:30:38.898Z,95.08
2023-04-09T06:33:43.168Z,94.90
2023-04-09T06:36:48.522Z,94.47
2023-04-09T06:40:01.721Z,94.11
2023-04-09T06:43:07.356Z,93.24
2023-04-09T06:46:24.345Z,92.79
2023-04-09T06:49:28.225Z,91.80
2023-04-09T06:52:37.784Z,91.77
2023-04-09T06:55:47.294Z,90.79
2023-04-09T06:58:52.789Z,91.98
2023-04-09T07:01:56.009Z,89.37
2023-04-09T07:05:05.482Z,89.12
2023-04-09T07:08:16.335Z,87.46
2023-04-09T07:11:32.340Z,88.34
2023-04-09T07:14:36.730Z,88.02
2023-04-09T07:17:39.821Z,85.74
2023-04-09T07:20:58.338Z,85.35
2023-04-09T07:24:10.561Z,82.67
2023-04-09T07:27:21.435Z,83.74
2023-04-09T07:30:24.552Z,82.57
2023-04-09T07:33:37.324Z,80.67
2023-04-09T07:36:44.675Z,76.87
2023-04-09T07:39:51.325Z,71.08
2023-04-09T07:42:55.819Z,71.46
2023-04-09T07:46:10.581Z,64.45
2023-04-09T07:49:25.918Z,65.60
2023-04-09T07:52:34.772Z,58.72
2023-04-09T07:55:38.231Z,64.66
2023-04-09T07:58:53.808Z,62.23
2023-04-09T08:02:05.764Z,61.49
2023-04-09T08:05:19.417Z,65.38
2023-04-09T08:08:31.204Z,67.96
2023-04-09T08:11:36.259Z,66.55
2023-04-09T08:14:49.404Z,65.88
2023-04-09T08:17:55.113Z,64.21
2023-04-09T08:21:04.983Z,63.34
2023-04-09T08:24:16.294Z,65.21
2023-04-09T08:27:22.513Z,63.04
2023-04-09T08:30:37.775Z,67.32
2023-04-09T08:33:41.315Z,65.43
2023-04-09T08:36:50.139Z,66.54
2023-04-09T08:40:01.245Z,66.00
2023-04-09T08:43:21.183Z,66.48
2023-04-09T08:46:26.727Z,67.13
2023-04-09T08:49:30.247Z,67.80
2023-04-09T08:52:36.282Z,67.09
2023-04-09T08:55:42.585Z,66.50
2023-04-09T08:58:51.855Z,66.90
2023-04-09T09:02:14.632Z,66.54
2023-04-09T09:05:42.579Z,65.33
2023-04-09T09:09:08.343Z,65.28
2023-04-09T09:12:36.590Z,64.50
2023-04-09T09:15:51.193Z,64.39
2023-04-09T09:19:04.292Z,65.15
2023-04-09T09:22:12.688Z,65.42
2023-04-09T09:25:17.308Z,65.67
2023-04-09T09:28:26.495Z,64.39
2023-04-09T09:31:47.709Z,66.33
2023-04-09T09:34:59.839Z,66.69
2023-04-09T09:38:05.611Z,65.20
2023-04-09T09:41:21.478Z,65.60
2023-04-09T09:44:42.224Z,65.10
2023-04-09T09:47:51.430Z,65.98
2023-04-09T09:50:59.491Z,65.72
2023-04-09T09:54:07.344Z,66.55
2023-04-09T09:57:13.846Z,65.80
2023-04-09T10:00:26.534Z,66.54
2023-04-09T10:03:38.543Z,66.57
2023-04-09T10:06:46.302Z,67.38
2023-04-09T10:09:53.234Z,66.76
2023-04-09T10:13:04.185Z,67.65
2023-04-09T10:16:10.340Z,68.35
2023-04-09T10:19:20.371Z,68.28
2023-04-09T10:22:33.256Z,66.55
2023-04-09T10:25:36.133Z,67.28
2023-04-09T10:28:48.250Z,65.64
2023-04-09T10:32:14.408Z,64.55
2023-04-09T10:35:27.055Z,63.82
2023-04-09T10:38:39.273Z,61.12
2023-04-09T10:41:47.277Z,60.75
2023-04-09T10:45:10.199Z,61.59
2023-04-09T10:48:17.395Z,63.26
2023-04-09T10:51:41.156Z,64.05
2023-04-09T10:54:52.955Z,64.37
2023-04-09T10:57:56.306Z,64.80
2023-04-09T11:01:05.693Z,64.99
2023-04-09T11:04:23.053Z,65.18
2023-04-09T11:07:41.606Z,63.70
2023-04-09T11:10:49.766Z,63.57
2023-04-09T11:14:05.424Z,63.79
2023-04-09T11:17:22.384Z,65.03
2023-04-09T11:20:35.276Z,64.66
2023-04-09T11:23:42.281Z,63.56
2023-04-09T11:26:52.260Z,65.06
2023-04-09T11:29:59.322Z,65.06
2023-04-09T11:33:14.353Z,65.74
2023-04-09T11:36:18.094Z,65.29
2023-04-09T11:39:23.518Z,65.75
2023-04-09T11:42:35.747Z,65.59
2023-04-09T11:45:43.736Z,65.75
2023-04-09T11:48:55.180Z,65.85
2023-04-09T11:52:07.274Z,65.99
2023-04-09T11:55:36.193Z,65.78
2023-04-09T11:58:52.056Z,65.33
2023-04-09T12:02:07.342Z,66.54
2023-04-09T12:05:28.360Z,65.17
2023-04-09T12:08:35.329Z,66.07
2023-04-09T12:11:47.321Z,65.54
2023-04-09T12:14:56.561Z,65.38
2023-04-09T12:18:15.313Z,65.21
2023-04-09T12:21:28.276Z,64.91
2023-04-09T12:24:38.216Z,63.59
2023-04-09T12:27:41.498Z,63.71
2023-04-09T12:30:57.286Z,64.43
2023-04-09T12:34:00.992Z,64.72
2023-04-09T12:37:16.619Z,63.81
2023-04-09T12:40:27.526Z,64.23
2023-04-09T12:43:39.493Z,63.86
2023-04-09T12:46:50.412Z,63.64
2023-04-09T12:50:06.413Z,63.78
2023-04-09T12:53:12.827Z,63.66
2023-04-09T12:56:19.192Z,62.99
2023-04-09T12:59:22.691Z,64.40
2023-04-09T13:02:31.442Z,64.47
2023-04-09T13:05:43.195Z,64.11
2023-04-09T13:09:00.188Z,62.36
2023-04-09T13:12:03.233Z,61.99
2023-04-09T13:15:09.292Z,62.33
2023-04-09T13:18:26.292Z,62.10
2023-04-09T13:21:36.186Z,61.63
2023-04-09T13:24:40.927Z,60.91
2023-04-09T13:27:49.148Z,59.69
2023-04-09T13:31:00.365Z,60.61
2023-04-09T13:34:13.220Z,59.04
2023-04-09T13:37:17.651Z,60.32
2023-04-09T13:40:31.466Z,60.20
2023-04-09T13:43:45.185Z,59.78
2023-04-09T13:46:50.703Z,59.19
2023-04-09T13:49:55.300Z,60.08
2023-04-09T13:53:06.015Z,60.22
2023-04-09T13:56:21.400Z,59.65
2023-04-09T13:59:25.736Z,60.03
2023-04-09T14:02:35.806Z,59.97
2023-04-09T14:05:49.193Z,58.54
2023-04-09T14:09:05.659Z,59.29
2023-04-09T14:12:19.846Z,59.81
2023-04-09T14:15:27.103Z,59.50
2023-04-09T14:18:32.206Z,59.60
2023-04-09T14:21:46.288Z,59.24
2023-04-09T14:24:51.229Z,58.38
2023-04-09T14:27:56.246Z,58.59
2023-04-09T14:31:02.504Z,58.93
2023-04-09T14:34:09.480Z,59.61
2023-04-09T14:37:13.592Z,56.04
2023-04-09T14:40:19.296Z,59.05
2023-04-09T14:43:39.180Z,58.25
2023-04-09T14:46:44.582Z,57.70
2023-04-09T14:49:58.891Z,56.29
2023-04-09T14:53:13.375Z,56.25
2023-04-09T14:56:18.258Z,55.88
2023-04-09T14:59:26.355Z,58.15
2023-04-09T15:02:32.476Z,58.78
2023-04-09T15:05:52.330Z,58.45
2023-04-09T15:09:12.388Z,58.83
2023-04-09T15:12:25.189Z,58.98
2023-04-09T15:15:37.290Z,59.62
2023-04-09T15:18:41.196Z,59.31
2023-04-09T15:21:51.222Z,59.20
2023-04-09T15:25:04.125Z,58.73
2023-04-09T15:28:08.184Z,58.41
2023-04-09T15:31:14.176Z,59.02
2023-04-09T15:34:28.574Z,58.82
2023-04-09T15:37:33.205Z,59.14
2023-04-09T15:40:44.283Z,59.30
2023-04-09T15:43:53.980Z,59.95
2023-04-09T15:47:00.221Z,59.05
2023-04-09T15:50:16.240Z,58.49
2023-04-09T15:53:38.296Z,59.51
2023-04-09T15:56:42.992Z,58.76
2023-04-09T15:59:48.530Z,58.97
2023-04-09T16:02:55.300Z,58.66
2023-04-09T16:06:07.952Z,58.63
2023-04-09T16:09:16.743Z,58.59
2023-04-09T16:12:25.723Z,58.24
2023-04-09T16:15:51.332Z,58.38
2023-04-09T16:19:10.602Z,57.89
2023-04-09T16:22:18.480Z,57.94
2023-04-09T16:25:22.199Z,57.88
2023-04-09T16:28:33.547Z,56.81
2023-04-09T16:31:48.427Z,57.90
2023-04-09T16:35:07.124Z,57.79
2023-04-09T16:38:15.646Z,57.88
2023-04-09T16:41:20.874Z,58.30
2023-04-09T16:44:26.841Z,58.62
2023-04-09T16:47:32.490Z,58.56
2023-04-09T16:50:45.496Z,58.68
2023-04-09T16:53:48.910Z,58.54
2023-04-09T16:56:54.250Z,59.26
2023-04-09T17:00:00.002Z,59.84
2023-04-09T17:03:16.688Z,59.17
2023-04-09T17:06:20.119Z,59.22
2023-04-09T17:09:25.261Z,59.82
2023-04-09T17:12:40.260Z,60.43
2023-04-09T17:15:45.394Z,60.76
2023-04-09T17:18:57.538Z,61.17
2023-04-09T17:22:14.235Z,61.65
2023-04-09T17:25:27.193Z,61.99
2023-04-09T17:28:31.347Z,62.37
2023-04-09T17:31:41.887Z,62.44
2023-04-09T17:34:49.585Z,62.57
2023-04-09T17:37:54.730Z,61.97
2023-04-09T17:40:59.459Z,62.25
2023-04-09T17:44:12.183Z,62.88
2023-04-09T17:47:21.291Z,63.69
2023-04-09T17:50:26.261Z,64.31
2023-04-09T17:53:30.512Z,65.20
2023-04-09T17:56:39.103Z,65.32
2023-04-09T17:59:55.848Z,65.64
2023-04-09T18:03:08.562Z,66.65
2023-04-09T18:06:23.669Z,68.10
2023-04-09T18:09:47.122Z,69.09
2023-04-09T18:13:08.133Z,70.00
2023-04-09T18:16:13.425Z,71.22
2023-04-09T18:19:17.173Z,71.37
2023-04-09T18:22:29.577Z,72.91
2023-04-09T18:25:37.791Z,73.31
2023-04-09T18:28:42.662Z,74.16
2023-04-09T18:31:50.830Z,74.43
2023-04-09T18:35:03.723Z,74.52
2023-04-09T18:38:08.041Z,74.96
2023-04-09T18:41:20.194Z,75.23
2023-04-09T18:44:26.530Z,75.66
2023-04-09T18:47:29.351Z,76.14
2023-04-09T18:50:43.123Z,76.58
2023-04-09T18:53:59.167Z,77.22
2023-04-09T18:57:17.232Z,77.08
2023-04-09T19:00:35.255Z,77.41
2023-04-09T19:03:46.260Z,77.46
2023-04-09T19:06:52.680Z,77.45
2023-04-09T19:10:01.532Z,78.19
2023-04-09T19:13:11.290Z,78.56
2023-04-09T19:16:24.335Z,78.48
2023-04-09T19:19:37.301Z,78.66
2023-04-09T19:22:50.752Z,78.76
2023-04-09T19:25:58.312Z,79.20
2023-04-09T19:29:06.298Z,79.24
2023-04-09T19:32:15.259Z,79.57
2023-04-09T19:35:21.579Z,80.01
2023-04-09T19:38:33.458Z,79.78
2023-04-09T19:41:41.252Z,79.86
2023-04-09T19:44:49.835Z,80.06
2023-04-09T19:47:55.600Z,80.25
2023-04-09T19:51:14.108Z,80.54
2023-04-09T19:54:22.385Z,80.45
2023-04-09T19:57:26.537Z,80.90
2023-04-09T20:00:41.195Z,80.94
2023-04-09T20:03:59.753Z,81.07
2023-04-09T20:07:04.477Z,81.84
2023-04-09T20:10:17.189Z,81.84
2023-04-09T20:13:26.280Z,81.91
2023-04-09T20:16:31.462Z,82.42
2023-04-09T20:19:37.967Z,82.71
2023-04-09T20:22:43.297Z,82.41
2023-04-09T20:25:54.214Z,82.55
2023-04-09T20:29:00.530Z,82.43
2023-04-09T20:32:12.416Z,82.57
2023-04-09T20:35:20.535Z,82.77
2023-04-09T20:38:24.895Z,82.88
2023-04-09T20:41:31.422Z,83.13
2023-04-09T20:44:41.777Z,83.43
2023-04-09T20:47:57.180Z,83.44
2023-04-09T20:51:02.886Z,83.56
2023-04-09T20:54:07.900Z,83.63
2023-04-09T20:57:13.733Z,83.85
2023-04-09T21:00:24.165Z,83.38
2023-04-09T21:03:27.979Z,84.11
2023-04-09T21:06:34.693Z,83.77
2023-04-09T21:09:45.049Z,83.96
2023-04-09T21:12:50.708Z,84.24
2023-04-09T21:15:53.737Z,84.46
2023-04-09T21:18:58.585Z,84.90
2023-04-09T21:22:03.319Z,84.84
2023-04-09T21:25:07.347Z,85.13
2023-04-09T21:28:12.208Z,85.45
2023-04-09T21:31:22.647Z,85.71
2023-04-09T21:34:27.786Z,86.15
2023-04-09T21:37:33.792Z,86.28
2023-04-09T21:40:42.288Z,85.97
2023-04-09T21:43:48.260Z,85.96
2023-04-09T21:46:57.444Z,86.00
2023-04-09T21:50:00.996Z,86.38
2023-04-09T21:53:05.243Z,86.91
2023-04-09T21:56:08.469Z,86.79
2023-04-09T21:59:11.956Z,86.68
2023-04-09T22:02:22.960Z,87.16
2023-04-09T22:05:32.851Z,87.06
2023-04-09T22:08:55.482Z,88.13
2023-04-09T22:12:06.123Z,87.81
2023-04-09T22:15:11.193Z,87.88
2023-04-09T22:18:15.848Z,88.05
2023-04-09T22:21:19.385Z,88.16
2023-04-09T22:24:30.375Z,88.30
2023-04-09T22:27:35.396Z,88.80
2023-04-09T22:30:40.985Z,89.08
2023-04-09T22:33:46.973Z,88.95
2023-04-09T22:36:51.680Z,88.56
2023-04-09T22:39:54.653Z,88.38
2023-04-09T22:42:58.002Z,88.26
2023-04-09T22:46:02.172Z,88.41
2023-04-09T22:49:06.583Z,88.85
2023-04-09T22:52:12.320Z,89.52
2023-04-09T22:55:16.662Z,90.30
2023-04-09T22:58:19.425Z,89.59
2023-04-09T23:01:23.543Z,89.47
2023-04-09T23:04:26.786Z,89.58
2023-04-09T23:07:29.740Z,89.77
2023-04-09T23:10:34.250Z,89.81
2023-04-09T23:13:39.536Z,90.26
2023-04-09T23:16:42.905Z,90.24
2023-04-09T23:19:45.946Z,90.64
2023-04-09T23:22:50.496Z,91.29
2023-04-09T23:25:55.372Z,91.15
2023-04-09T23:28:58.292Z,90.85
2023-04-09T23:32:03.096Z,90.64
2023-04-09T23:35:06.691Z,90.72
2023-04-09T23:38:09.760Z,90.61
2023-04-09T23:41:16.503Z,90.86
2023-04-09T23:44:20.914Z,90.90
2023-04-09T23:47:24.233Z,90.95
2023-04-09T23:50:29.019Z,91.80
2023-04-09T23:53:32.658Z,92.09
2023-04-09T23:56:36.272Z,92.32
2023-04-09T23:59:39.364Z,92.15
